Terminal Aerodrome Forecast
Issued by NWS Grand Forks, ND

Home | Current Version | Previous Version | Text Only | Print | Product List | Glossary Off
Versions: 1 2 3 4 5 6 7 8 9 10 11 12 13 14 15 16 17 18 19 20 21 22

818
FTUS43 KFGF 190530
TAFFAR
TAF
KFAR 190530Z 1906/2006 15010KT P6SM OVC009
     FM190900 15014KT 5SM BR OVC003
     FM191800 15021G29KT P6SM BKN070
     FM192100 15024G34KT P6SM SCT200
     FM200000 15016G24KT P6SM VCTS BKN045CB
     FM200100 15014KT 6SM TSRA OVC030CB
     FM200500 20011KT P6SM TSRA OVC035CB=

USA.gov is the U.S. government's official web portal to all federal, state and local government web resources and services.